Time;durP1;ratioP1;P1;durP2;ratioP2;P2;SDS_P1;SDS_P2;PMS_P1;PMS_P2;Temp;Humidity;BMP_temperature;BMP_pressure;BME280_temperature;BME280_humidity;BME280_pressure;Samples;Min_cycle;Max_cycle;Signal;HPM_P1;HPM_P2
2022/11/11 00:02:26;;;;;;;14.20;8.80;;;;;;;9.09;87.74;99879.95;102131;1299;75271;-23
2022/11/11 00:05:12;;;;;;;11.20;7.00;;;;;;;9.00;88.12;99881.91;101307;1301;1302612;-23
2022/11/11 00:08:00;;;;;;;14.60;8.40;;;;;;;9.06;88.16;99880.88;102172;1302;74204;-23
2022/11/11 00:10:46;;;;;;;14.30;9.30;;;;;;;9.38;86.30;99884.61;102220;1296;62204;-24
2022/11/11 00:13:32;;;;;;;17.20;9.40;;;;;;;9.29;86.33;99889.88;102091;1293;62848;-24
2022/11/11 00:16:19;;;;;;;15.00;9.90;;;;;;;8.99;87.92;99889.77;101970;1298;76780;-24
2022/11/11 00:25:22;;;;;;;17.90;9.00;;;;;;;9.45;85.05;99886.41;102202;1291;61690;-23
2022/11/11 00:28:08;;;;;;;16.30;9.40;;;;;;;9.32;85.27;99886.36;102173;1299;62075;-27
2022/11/11 00:31:01;;;;;;;15.80;9.60;;;;;;;9.07;86.64;99889.96;102189;1302;75527;-23
2022/11/11 00:33:47;;;;;;;13.30;7.80;;;;;;;8.91;87.63;99891.46;102054;1297;77395;-25
2022/11/11 00:36:32;;;;;;;15.20;8.80;;;;;;;9.43;86.25;99894.34;102154;1299;74427;-24
2022/11/11 00:39:18;;;;;;;17.20;10.40;;;;;;;9.48;85.09;99888.30;102207;1300;61777;-26
2022/11/11 00:42:04;;;;;;;15.70;9.90;;;;;;;9.43;85.60;99889.12;102180;1292;63308;-27
2022/11/11 00:44:50;;;;;;;16.90;9.70;;;;;;;9.31;85.65;99886.09;102218;1294;76391;-27
2022/11/11 00:50:59;;;;;;;16.50;8.40;;;;;;;9.82;84.83;99881.98;102151;1294;75306;-26
2022/11/11 00:53:45;;;;;;;14.20;9.80;;;;;;;10.03;83.50;99879.08;102142;1302;61775;-26
2022/11/11 00:56:31;;;;;;;17.90;11.40;;;;;;;9.78;83.67;99877.20;102155;1301;62759;-24
2022/11/11 00:59:16;;;;;;;20.30;12.40;;;;;;;9.49;84.98;99878.02;102186;1295;75324;-25
2022/11/11 01:02:02;;;;;;;17.00;10.80;;;;;;;9.25;86.33;99871.72;102213;1299;76661;-24
2022/11/11 01:04:48;;;;;;;20.60;10.90;;;;;;;9.64;85.51;99872.02;102193;1301;74189;-25
2022/11/11 01:07:34;;;;;;;19.40;11.00;;;;;;;9.92;83.94;99872.16;102232;1299;61195;-25
2022/11/11 01:10:40;;;;;;;20.90;12.00;;;;;;;9.75;84.14;99876.21;102221;1302;62883;-24
2022/11/11 01:13:31;;;;;;;23.80;13.10;;;;;;;9.37;85.36;99877.18;102157;1301;75388;-24
2022/11/11 01:16:20;;;;;;;16.40;9.60;;;;;;;9.23;86.48;99879.46;102014;1299;76533;-24
2022/11/11 01:19:05;;;;;;;16.90;10.80;;;;;;;9.58;85.81;99879.34;102151;1299;74742;-25
2022/11/11 01:21:51;;;;;;;18.20;11.20;;;;;;;9.76;84.57;99880.98;102212;1301;61788;-24
2022/11/11 01:24:37;;;;;;;21.40;12.60;;;;;;;9.55;84.94;99882.66;102219;1299;62826;-24
2022/11/11 01:27:23;;;;;;;24.10;14.50;;;;;;;9.23;86.45;99883.95;102238;1299;76511;-25
2022/11/11 01:30:12;;;;;;;19.40;10.50;;;;;;;9.11;87.78;99882.62;102242;1299;76736;-24
2022/11/11 01:32:59;;;;;;;20.20;11.60;;;;;;;9.65;85.72;99886.17;102311;1298;75251;-24
2022/11/11 01:35:45;;;;;;;20.60;11.50;;;;;;;9.72;84.44;99891.10;102201;1291;61862;-25
2022/11/11 01:38:31;;;;;;;24.10;13.10;;;;;;;9.51;85.48;99891.42;102188;1299;63484;-24
2022/11/11 01:41:35;;;;;;;18.60;11.10;;;;;;;9.31;86.22;99894.73;102290;1299;75283;-24
2022/11/11 01:44:54;;;;;;;20.30;12.40;;;;;;;9.20;87.25;99891.60;102145;1299;75886;-24
2022/11/11 01:51:05;;;;;;;22.40;12.60;;;;;;;9.40;85.99;99894.02;102190;1294;62833;-24
2022/11/11 01:53:54;;;;;;;19.60;12.00;;;;;;;9.05;87.63;99895.80;102145;1299;61023;-24
2022/11/11 01:56:41;;;;;;;20.90;12.00;;;;;;;8.91;88.87;99897.33;102180;1299;75363;-24
2022/11/11 01:59:27;;;;;;;22.10;12.40;;;;;;;9.30;87.06;99896.70;102139;1294;77024;-24
2022/11/11 02:02:22;;;;;;;20.90;12.30;;;;;;;9.42;85.83;99897.15;102025;1287;74131;-25
2022/11/11 02:08:31;;;;;;;24.50;13.10;;;;;;;9.03;87.52;99902.70;102190;1299;61834;-24
2022/11/11 02:14:34;;;;;;;22.20;12.50;;;;;;;9.13;87.54;99902.25;102081;1299;76298;-24
2022/11/11 02:14:35;;;;;;;21.40;12.50;;;;;;;9.44;85.77;99904.67;102119;1299;75983;-24
2022/11/11 02:17:22;;;;;;;17.90;10.70;;;;;;;9.12;86.88;99905.59;102215;1299;75351;-26
2022/11/11 02:20:09;;;;;;;21.00;12.80;;;;;;;8.93;87.85;99911.80;102095;1299;61763;-24
2022/11/11 02:23:21;;;;;;;18.70;12.20;;;;;;;9.04;87.95;99916.68;102057;1291;61773;-24
2022/11/11 02:26:08;;;;;;;21.20;12.40;;;;;;;9.42;85.94;99922.85;102175;1299;76804;-24
2022/11/11 02:28:54;;;;;;;19.20;11.40;;;;;;;9.21;86.57;99918.89;102123;1299;76658;-25
2022/11/11 02:31:39;;;;;;;19.70;10.70;;;;;;;9.01;87.78;99920.48;102172;1294;75220;-24
2022/11/11 02:34:30;;;;;;;24.80;13.10;;;;;;;8.92;88.65;99922.25;102110;1297;63585;-24
2022/11/11 02:37:19;;;;;;;20.50;12.00;;;;;;;9.28;87.00;99925.77;102131;1302;61919;-24
2022/11/11 02:40:07;;;;;;;21.70;11.80;;;;;;;9.44;86.07;99927.04;102089;1294;75184;-24
2022/11/11 02:42:53;;;;;;;24.20;14.10;;;;;;;9.31;86.26;99928.70;102155;1298;76981;-24
2022/11/11 02:45:39;;;;;;;23.50;12.80;;;;;;;9.06;87.30;99930.58;102183;1294;75247;-24
2022/11/11 02:48:24;;;;;;;20.10;11.10;;;;;;;9.17;87.61;99930.57;102189;1294;62823;-25
2022/11/11 02:51:10;;;;;;;20.80;12.90;;;;;;;9.52;85.88;99929.83;102189;1298;63003;-24
2022/11/11 02:53:57;;;;;;;21.30;12.80;;;;;;;9.48;85.50;99935.97;102228;1299;76511;-24
2022/11/11 02:59:48;;;;;;;16.30;10.60;;;;;;;9.06;87.62;99937.00;102165;1293;75163;-24
2022/11/11 03:02:34;;;;;;;17.30;11.40;;;;;;;9.61;85.99;99936.00;102239;1293;62787;-24
2022/11/11 03:05:20;;;;;;;21.30;13.50;;;;;;;9.46;85.63;99940.40;102238;1299;63217;-25
2022/11/11 03:08:06;;;;;;;19.60;12.30;;;;;;;9.43;85.94;99938.49;102174;1291;76598;-24
2022/11/11 03:10:52;;;;;;;23.90;14.00;;;;;;;9.25;86.49;99938.44;102196;1294;75769;-24
2022/11/11 03:13:37;;;;;;;18.50;11.60;;;;;;;9.02;88.10;99941.19;102084;1299;74193;-25
2022/11/11 03:19:28;;;;;;;24.70;12.70;;;;;;;9.52;85.60;99941.97;102237;1299;61928;-24
2022/11/11 03:22:14;;;;;;;21.60;12.90;;;;;;;9.32;86.18;99942.67;102234;1301;75399;-24
2022/11/11 03:25:39;;;;;;;24.60;11.70;;;;;;;8.97;88.04;99947.38;102217;1294;74877;-24
2022/11/11 03:28:25;;;;;;;20.60;11.10;;;;;;;9.37;87.03;99944.62;102214;1293;74096;-25
2022/11/11 03:31:10;;;;;;;22.70;13.40;;;;;;;9.64;85.18;99942.40;102213;1298;61775;-24
2022/11/11 03:34:16;;;;;;;19.80;11.50;;;;;;;9.45;85.50;99945.83;102099;1293;62790;-24
2022/11/11 03:40:11;;;;;;;17.30;10.40;;;;;;;9.17;87.47;99954.34;102150;1296;75855;-24
2022/11/11 03:42:56;;;;;;;22.30;11.70;;;;;;;9.49;86.25;99952.87;102216;1294;75179;-24
2022/11/11 03:45:50;;;;;;;23.80;13.30;;;;;;;9.56;85.10;99959.03;102197;1301;61779;-24
2022/11/11 03:48:36;;;;;;;28.60;14.70;;;;;;;9.15;86.85;99957.06;102052;1297;63007;-25
2022/11/11 03:51:21;;;;;;;24.70;12.40;;;;;;;9.00;87.93;99959.85;102090;1301;77083;-24
2022/11/11 03:54:07;;;;;;;21.80;12.10;;;;;;;9.11;87.98;99957.95;102271;1302;76847;-25
2022/11/11 03:57:29;;;;;;;22.40;11.90;;;;;;;9.41;85.94;99955.64;102203;1301;75268;-26
2022/11/11 03:59:58;;;;;;;22.40;13.00;;;;;;;9.31;86.00;99958.68;102183;1301;62851;-25
2022/11/11 04:11:57;;;;;;;20.10;11.10;;;;;;;9.48;85.14;99965.07;102218;1278;75342;-25
2022/11/11 04:17:48;;;;;;;19.80;12.90;;;;;;;8.94;87.54;99965.91;102202;1299;62882;-25
2022/11/11 04:23:38;;;;;;;22.40;12.30;;;;;;;9.42;85.35;99963.05;102157;1302;76800;-23
2022/11/11 04:26:24;;;;;;;19.20;13.60;;;;;;;9.23;85.83;99965.24;102172;1295;74285;-23
2022/11/11 04:29:28;;;;;;;19.20;12.00;;;;;;;9.11;86.71;99968.72;102065;1300;61715;-23
2022/11/11 04:35:19;;;;;;;16.00;11.00;;;;;;;9.28;85.92;99970.48;102209;1301;74396;-23
2022/11/11 04:41:11;;;;;;;19.70;13.40;;;;;;;9.13;85.98;99982.47;102002;1299;73972;-23
2022/11/11 04:47:01;;;;;;;17.60;10.80;;;;;;;9.07;86.93;99989.55;102147;1295;62765;-23
2022/11/11 04:49:47;;;;;;;21.40;13.00;;;;;;;9.30;85.57;99994.75;102148;1294;75502;-23
2022/11/11 04:52:33;;;;;;;16.80;11.30;;;;;;;9.15;85.84;100001.36;102254;1301;76792;-23
2022/11/11 04:58:24;;;;;;;15.00;10.20;;;;;;;8.81;87.98;100006.52;102119;1295;63833;-23
2022/11/11 05:01:09;;;;;;;19.00;11.20;;;;;;;9.30;85.90;100012.12;102074;1299;61673;-23
2022/11/11 05:03:55;;;;;;;17.60;11.70;;;;;;;9.30;85.06;100014.71;102192;1299;74819;-23
2022/11/11 05:09:45;;;;;;;16.70;9.20;;;;;;;8.89;87.65;100016.11;102214;1299;74428;-23
2022/11/11 05:12:31;;;;;;;16.60;10.50;;;;;;;9.16;86.47;100013.95;102252;1299;61210;-23
2022/11/11 05:21:27;;;;;;;19.70;11.60;;;;;;;9.19;85.00;100026.29;102185;1301;76666;-23
2022/11/11 05:27:17;;;;;;;;;;;;;;;9.48;85.16;100037.02;102253;1299;62796;-23
2022/11/11 05:30:04;;;;;;;16.10;9.50;;;;;;;9.55;84.14;100042.29;102159;1295;61618;-23
2022/11/11 05:32:49;;;;;;;15.50;10.00;;;;;;;9.43;84.36;100049.46;102057;1299;76292;-23
2022/11/11 05:35:35;;;;;;;15.20;10.30;;;;;;;9.14;85.69;100053.58;102228;1295;76885;-23
2022/11/11 05:38:21;;;;;;;17.70;10.00;;;;;;;8.80;87.96;100060.94;102214;1299;73761;-23
2022/11/11 05:41:07;;;;;;;15.90;9.40;;;;;;;9.35;85.94;100064.16;102191;1294;61742;-23
2022/11/11 05:43:53;;;;;;;14.70;9.50;;;;;;;9.52;84.39;100069.50;102232;1302;62726;-23
2022/11/11 05:46:38;;;;;;;16.90;10.60;;;;;;;9.48;84.69;100068.73;102246;1294;76319;-23
2022/11/11 05:49:24;;;;;;;21.50;12.80;;;;;;;9.26;85.40;100076.30;102241;1301;77131;-23
2022/11/11 05:52:11;;;;;;;20.00;9.40;;;;;;;9.09;86.34;100074.16;102168;1294;75178;-23
2022/11/11 05:54:57;;;;;;;19.80;11.20;;;;;;;9.39;85.47;100076.52;102108;1299;62816;-23
2022/11/11 05:57:43;;;;;;;17.00;10.60;;;;;;;9.61;84.37;100082.15;102164;1294;61774;-24
2022/11/11 06:00:29;;;;;;;17.40;9.80;;;;;;;9.52;84.63;100086.86;102058;1301;75266;-23
2022/11/11 06:03:15;;;;;;;21.60;12.10;;;;;;;9.33;85.12;100086.95;102193;1294;75852;-24
2022/11/11 06:06:01;;;;;;;13.70;9.10;;;;;;;9.05;86.96;100092.94;102146;1301;75107;-24
2022/11/11 06:08:46;;;;;;;16.30;10.60;;;;;;;9.42;85.55;100088.31;102204;1301;62985;-24
2022/11/11 06:11:32;;;;;;;17.30;10.10;;;;;;;9.51;84.96;100087.07;102203;1301;62700;-23
2022/11/11 06:14:18;;;;;;;23.50;11.40;;;;;;;9.39;85.05;100087.47;102255;1301;76232;-23
2022/11/11 06:17:03;;;;;;;17.30;11.60;;;;;;;9.30;86.01;100092.34;102242;1299;76732;-24
2022/11/11 06:19:49;;;;;;;16.70;9.60;;;;;;;9.14;87.00;100095.20;102216;1301;75117;-23
2022/11/11 06:28:52;;;;;;;12.60;8.20;;;;;;;9.35;85.16;100109.03;102240;1301;76264;-23
2022/11/11 06:31:37;;;;;;;14.70;9.60;;;;;;;9.31;85.76;100109.27;102183;1299;75972;-24
2022/11/11 06:34:23;;;;;;;16.70;10.30;;;;;;;9.11;86.75;100111.27;102217;1301;75214;-23
2022/11/11 06:37:09;;;;;;;20.40;9.30;;;;;;;9.47;85.99;100117.15;102234;1300;62842;-24
2022/11/11 06:39:54;;;;;;;17.70;9.20;;;;;;;9.70;84.43;100117.48;102227;1302;62765;-24
2022/11/11 06:42:40;;;;;;;15.30;11.00;;;;;;;9.51;84.94;100116.58;102186;1302;76395;-24
2022/11/11 06:45:27;;;;;;;17.10;9.70;;;;;;;9.10;86.68;100118.25;102183;1287;76811;-23
2022/11/11 06:48:13;;;;;;;17.20;8.80;;;;;;;9.12;87.00;100123.72;101958;1299;73062;-24
2022/11/11 06:51:04;;;;;;;18.50;9.50;;;;;;;9.42;85.79;100120.56;102175;1299;61909;-24
2022/11/11 06:53:50;;;;;;;17.40;10.30;;;;;;;9.63;84.42;100123.83;102170;1299;62758;-24
2022/11/11 06:56:36;;;;;;;19.20;9.30;;;;;;;9.43;84.96;100125.70;102226;1294;75352;-24
2022/11/11 06:59:21;;;;;;;17.00;10.00;;;;;;;9.22;86.38;100125.19;102242;1300;76637;-24
2022/11/11 07:02:13;;;;;;;20.00;8.90;;;;;;;9.09;87.06;100128.20;102226;1302;74090;-23
2022/11/11 07:04:59;;;;;;;16.80;8.70;;;;;;;9.58;85.31;100129.83;102218;1302;62933;-24
2022/11/11 07:07:45;;;;;;;14.10;8.80;;;;;;;9.66;84.34;100132.69;102266;1302;62872;-27
2022/11/11 07:10:31;;;;;;;13.70;9.90;;;;;;;9.57;84.42;100133.70;102253;1295;75307;-27
2022/11/11 07:13:17;;;;;;;14.40;9.40;;;;;;;9.34;85.62;100131.95;102172;1284;75133;-25
2022/11/11 07:16:03;;;;;;;14.70;7.70;;;;;;;9.38;85.86;100130.66;102120;1294;75150;-25
2022/11/11 07:18:49;;;;;;;12.30;7.50;;;;;;;9.71;84.41;100134.09;102292;1302;62711;-26
2022/11/11 07:21:34;;;;;;;16.90;7.60;;;;;;;9.83;83.97;100141.53;102281;1295;61757;-26
2022/11/11 07:24:20;;;;;;;17.40;9.20;;;;;;;9.52;84.49;100139.39;102253;1302;76461;-25
2022/11/11 07:27:06;;;;;;;15.00;8.90;;;;;;;9.44;84.96;100138.81;102276;1288;76025;-24
2022/11/11 07:29:51;;;;;;;20.50;8.90;;;;;;;9.45;85.18;100138.40;102157;1294;75223;-24
2022/11/11 07:32:45;;;;;;;12.70;8.30;;;;;;;9.69;84.42;100147.56;102193;1302;62895;-23
2022/11/11 07:35:30;;;;;;;13.10;9.00;;;;;;;9.55;84.32;100142.34;102178;1300;62926;-24
2022/11/11 07:38:16;;;;;;;12.40;7.90;;;;;;;9.42;84.99;100150.54;102131;1296;75380;-24
2022/11/11 07:41:02;;;;;;;13.30;7.70;;;;;;;9.40;85.35;100154.64;102214;1299;75733;-24
2022/11/11 07:43:47;;;;;;;11.70;7.70;;;;;;;9.38;86.00;100153.38;102222;1301;74173;-25
2022/11/11 07:46:33;;;;;;;18.30;6.50;;;;;;;9.91;83.84;100160.64;102218;1294;61864;-24
2022/11/11 07:49:19;;;;;;;11.60;6.70;;;;;;;9.90;83.35;100155.46;102246;1294;62931;-24
2022/11/11 07:52:04;;;;;;;12.40;7.70;;;;;;;9.67;83.43;100157.56;102229;1302;76333;-25
2022/11/11 07:54:50;;;;;;;15.70;8.30;;;;;;;9.45;83.61;100153.84;102235;1301;75896;-23
2022/11/11 07:57:36;;;;;;;13.80;7.30;;;;;;;9.36;84.45;100158.89;102254;1297;73467;-23
2022/11/11 08:00:22;;;;;;;10.30;6.50;;;;;;;9.65;83.42;100163.55;102228;1301;61966;-22
2022/11/11 08:03:08;;;;;;;14.30;7.00;;;;;;;9.70;82.63;100168.50;102275;1301;62739;-22
2022/11/11 08:05:55;;;;;;;14.80;8.80;;;;;;;9.50;83.50;100169.52;102224;1294;75400;-23
2022/11/11 08:08:40;;;;;;;9.90;6.60;;;;;;;9.37;84.49;100175.98;102019;1297;76566;-23
2022/11/11 08:14:31;;;;;;;11.60;7.60;;;;;;;9.67;82.81;100182.87;102211;1301;62956;-24
2022/11/11 08:17:16;;;;;;;11.00;7.50;;;;;;;9.62;82.92;100186.79;102236;1296;62551;-23
2022/11/11 08:20:02;;;;;;;14.40;8.00;;;;;;;9.32;83.82;100185.26;102232;1301;76234;-23
2022/11/11 08:22:51;;;;;;;9.00;5.50;;;;;;;9.24;84.04;100189.35;102168;1294;76901;-23
2022/11/11 08:26:05;;;;;;;10.20;6.50;;;;;;;9.67;82.32;100195.02;102153;1301;75196;-23
2022/11/11 08:28:51;;;;;;;9.40;5.00;;;;;;;9.63;81.82;100195.59;102127;1301;62711;-23
2022/11/11 08:31:38;;;;;;;14.10;7.40;;;;;;;9.57;81.69;100194.74;102256;1302;61867;-23
2022/11/11 08:34:24;;;;;;;10.70;5.60;;;;;;;9.42;82.94;100198.06;102168;1301;76432;-24
2022/11/11 08:37:09;;;;;;;14.30;6.40;;;;;;;9.48;83.05;100201.30;102222;1302;76903;-23
2022/11/11 08:39:56;;;;;;;9.10;5.20;;;;;;;9.81;80.58;100198.89;102158;1302;74254;-23
2022/11/11 08:42:41;;;;;;;11.90;6.60;;;;;;;9.89;80.65;100205.72;102216;1301;61913;-24
2022/11/11 08:45:27;;;;;;;7.20;5.30;;;;;;;9.90;80.71;100207.90;102234;1294;61781;-24
2022/11/11 08:48:13;;;;;;;12.00;4.50;;;;;;;9.44;80.92;100203.26;102253;1300;76614;-24
2022/11/11 08:50:59;;;;;;;13.10;5.30;;;;;;;9.23;81.07;100202.94;102214;1293;76882;-24
2022/11/11 08:53:44;;;;;;;8.80;4.30;;;;;;;9.50;80.27;100198.63;102225;1301;74494;-24
2022/11/11 08:56:30;;;;;;;8.30;3.40;;;;;;;9.63;78.35;100197.70;102243;1301;62838;-24
2022/11/11 08:59:16;;;;;;;7.30;4.20;;;;;;;9.58;78.35;100202.14;102240;1301;62837;-24
2022/11/11 09:02:01;;;;;;;10.10;4.40;;;;;;;9.52;78.64;100198.31;102250;1301;76327;-24
2022/11/11 09:04:47;;;;;;;6.20;3.80;;;;;;;9.37;79.09;100193.63;102258;1301;76793;-24
2022/11/11 09:07:40;;;;;;;8.00;3.70;;;;;;;9.60;78.41;100187.28;102207;1302;75351;-24
2022/11/11 09:10:25;;;;;;;8.30;3.40;;;;;;;9.99;77.47;100191.73;102140;1294;61768;-24
2022/11/11 09:13:11;;;;;;;6.60;3.60;;;;;;;10.37;77.26;100188.06;102162;1298;61806;-24
2022/11/11 09:15:58;;;;;;;16.30;4.00;;;;;;;10.59;75.21;100184.41;102241;1298;75150;-24
2022/11/11 09:18:45;;;;;;;9.70;3.40;;;;;;;10.34;75.11;100181.08;102235;1293;75889;-24
2022/11/11 09:21:31;;;;;;;7.50;3.00;;;;;;;10.22;74.20;100175.61;101972;1297;75350;-24
2022/11/11 09:24:17;;;;;;;9.10;3.40;;;;;;;9.96;75.58;100183.95;102186;1302;61713;-24
2022/11/11 09:27:02;;;;;;;8.00;3.00;;;;;;;9.69;76.24;100181.88;102197;1294;61818;-24
2022/11/11 09:29:48;;;;;;;8.50;3.20;;;;;;;9.68;76.82;100183.48;102236;1300;76458;-24
2022/11/11 09:32:34;;;;;;;7.20;2.80;;;;;;;10.26;74.91;100180.52;102172;1294;76974;-24
2022/11/11 09:35:20;;;;;;;7.60;3.00;;;;;;;10.45;73.29;100177.36;102188;1301;75170;-24
2022/11/11 09:38:05;;;;;;;7.10;2.80;;;;;;;10.54;73.24;100173.83;102121;1297;62872;-23
2022/11/11 09:41:11;;;;;;;5.00;2.50;;;;;;;10.62;73.27;100170.02;102117;1301;63284;-24
2022/11/11 09:43:59;;;;;;;5.70;2.50;;;;;;;10.75;71.79;100169.02;102166;1301;76608;-24
2022/11/11 09:46:53;;;;;;;7.80;3.40;;;;;;;11.07;71.46;100172.30;101984;1298;76519;-25
2022/11/11 09:49:42;;;;;;;12.90;3.50;;;;;;;10.98;71.88;100173.41;102157;1301;74181;-24
2022/11/11 09:52:37;;;;;;;5.20;2.40;;;;;;;10.62;71.25;100171.90;102160;1300;62984;-25
2022/11/11 09:55:30;;;;;;;5.90;2.60;;;;;;;10.24;70.95;100168.04;102180;1301;61613;-24
2022/11/11 09:58:19;;;;;;;7.10;2.20;;;;;;;10.52;70.74;100162.69;102164;1297;76515;-25
2022/11/11 10:01:09;;;;;;;5.40;2.80;;;;;;;10.70;70.15;100157.34;101977;1297;75109;-24
2022/11/11 10:04:04;;;;;;;11.50;2.60;;;;;;;11.19;69.81;100159.20;102121;1302;75229;-25
2022/11/11 10:06:51;;;;;;;9.70;2.90;;;;;;;11.59;67.85;100153.05;102029;1295;61793;-25
2022/11/11 10:09:46;;;;;;;5.90;2.60;;;;;;;11.75;67.90;100148.51;102149;1296;61663;-24
2022/11/11 10:12:40;;;;;;;5.30;2.40;;;;;;;11.75;66.11;100150.24;102133;1301;76308;-24
2022/11/11 10:15:46;;;;;;;6.40;2.40;;;;;;;12.02;66.35;100143.21;102057;1302;76863;-23
2022/11/11 10:18:47;;;;;;;9.20;2.80;;;;;;;12.09;64.69;100141.12;102075;1300;74111;-24
2022/11/11 10:21:49;;;;;;;9.00;2.40;;;;;;;12.29;63.25;100147.41;102248;1300;61882;-25
2022/11/11 10:25:15;;;;;;;4.60;1.90;;;;;;;12.43;62.81;100146.63;102172;1297;61639;-25
2022/11/11 10:28:01;;;;;;;5.80;2.70;;;;;;;12.47;63.69;100148.60;102228;1295;75573;-25
2022/11/11 10:30:47;;;;;;;4.80;2.20;;;;;;;12.21;62.70;100144.87;102178;1301;76590;-28
2022/11/11 10:33:56;;;;;;;5.90;2.40;;;;;;;12.30;62.44;100143.35;102208;1301;75335;-26
2022/11/11 10:36:53;;;;;;;4.80;2.00;;;;;;;12.19;61.34;100149.52;102051;1297;61797;-26
2022/11/11 10:40:10;;;;;;;5.40;2.00;;;;;;;12.43;60.49;100149.52;102104;1300;61670;-27
2022/11/11 10:42:56;;;;;;;3.60;1.70;;;;;;;12.30;60.40;100154.85;102230;1302;74528;-24
2022/11/11 10:45:49;;;;;;;3.30;1.50;;;;;;;11.84;61.23;100152.57;102230;1302;76789;-28
2022/11/11 10:48:37;;;;;;;5.50;1.50;;;;;;;11.13;62.91;100162.88;101962;1297;74764;-25
2022/11/11 10:51:36;;;;;;;4.70;1.50;;;;;;;10.74;64.09;100163.35;102047;1302;62896;-23
2022/11/11 10:54:25;;;;;;;6.10;1.90;;;;;;;10.71;64.16;100160.25;102149;1301;61784;-23
2022/11/11 10:57:21;;;;;;;5.20;1.90;;;;;;;10.25;66.20;100162.90;102267;1302;76246;-25
2022/11/11 11:00:09;;;;;;;7.60;2.40;;;;;;;10.32;66.46;100161.80;102230;1285;77206;-24
2022/11/11 11:03:01;;;;;;;3.30;1.70;;;;;;;10.16;68.03;100161.54;102148;1302;75099;-24
2022/11/11 11:06:02;;;;;;;3.00;2.10;;;;;;;10.08;68.86;100159.98;102198;1299;61587;-26
2022/11/11 11:08:53;;;;;;;7.50;2.50;;;;;;;9.99;70.22;100157.02;102172;1299;62727;-25
2022/11/11 11:11:42;;;;;;;7.50;2.20;;;;;;;10.04;70.22;100155.35;105802;1295;76056;-23
2022/11/11 11:14:36;;;;;;;3.20;2.20;;;;;;;9.92;69.61;100149.67;105752;1300;75556;-23
2022/11/11 11:17:29;;;;;;;4.30;2.50;;;;;;;9.92;69.27;100152.05;105711;1292;74787;-23
2022/11/11 11:20:18;;;;;;;2.90;1.40;;;;;;;9.88;70.06;100153.55;105774;1291;62346;-24
2022/11/11 11:23:04;;;;;;;3.70;1.40;;;;;;;10.68;67.99;100146.15;105742;1294;62545;-24
2022/11/11 11:25:55;;;;;;;3.40;1.50;;;;;;;11.52;65.14;100151.66;105846;1295;75954;-25
2022/11/11 11:28:58;;;;;;;6.40;2.50;;;;;;;11.34;64.18;100153.88;105784;1293;76442;-24
2022/11/11 11:31:46;;;;;;;7.00;2.60;;;;;;;11.48;65.38;100153.82;105646;1298;74672;-24
2022/11/11 11:34:45;;;;;;;7.70;2.90;;;;;;;10.88;67.50;100152.02;105774;1287;61236;-24
2022/11/11 11:37:30;;;;;;;8.50;3.40;;;;;;;10.60;68.56;100154.88;105723;1291;62470;-24
2022/11/11 11:40:16;;;;;;;6.60;3.20;;;;;;;10.76;67.25;100157.82;105787;1294;76220;-24
2022/11/11 11:43:02;;;;;;;10.20;3.70;;;;;;;10.67;68.76;100149.18;105777;1294;76422;-24
2022/11/11 11:45:54;;;;;;;7.00;2.60;;;;;;;10.59;68.04;100155.42;105718;1298;74752;-24
2022/11/11 11:48:42;;;;;;;7.70;2.90;;;;;;;10.68;66.64;100143.41;105694;1290;61144;-25
2022/11/11 11:51:34;;;;;;;5.60;2.30;;;;;;;10.35;67.25;100142.69;105712;1299;60322;-24
2022/11/11 11:54:34;;;;;;;8.30;3.20;;;;;;;10.50;67.76;100146.81;105794;1293;74476;-24
2022/11/11 11:57:32;;;;;;;8.40;2.70;;;;;;;10.68;69.38;100148.42;105660;1297;75421;-24
2022/11/11 12:00:19;;;;;;;6.40;2.60;;;;;;;10.45;69.00;100148.18;105708;1293;74906;-24
2022/11/11 12:03:16;;;;;;;7.40;2.50;;;;;;;10.30;69.34;100156.02;105714;1295;62371;-24
2022/11/11 12:06:16;;;;;;;4.40;3.00;;;;;;;10.29;70.01;100167.36;104875;1297;61529;-24
2022/11/11 12:09:08;;;;;;;4.80;2.20;;;;;;;10.31;68.89;100166.17;105708;1294;75942;-25
2022/11/11 12:12:01;;;;;;;6.40;3.50;;;;;;;10.16;70.35;100168.65;105713;1290;76310;-24
2022/11/11 12:15:10;;;;;;;;;;;;;;;10.15;69.71;100168.02;105606;1298;73848;-24
2022/11/11 12:18:20;;;;;;;4.90;2.80;;;;;;;10.03;68.80;100164.09;105680;1290;62435;-24
2022/11/11 12:21:17;;;;;;;7.00;2.70;;;;;;;9.94;69.11;100163.08;105763;1294;61262;-24
2022/11/11 12:24:21;;;;;;;6.10;1.90;;;;;;;9.88;70.18;100165.65;105691;1295;74018;-24
2022/11/11 12:27:35;;;;;;;6.40;2.00;;;;;;;10.23;69.64;100169.95;105746;1294;76366;-23
2022/11/11 12:30:27;;;;;;;6.30;2.20;;;;;;;10.75;68.10;100164.67;105759;1294;74615;-24
2022/11/11 12:33:18;;;;;;;9.30;2.50;;;;;;;10.64;67.71;100157.88;105650;1296;61827;-24
2022/11/11 12:36:09;;;;;;;5.10;2.50;;;;;;;10.67;69.11;100162.42;105770;1295;61458;-25
2022/11/11 12:39:01;;;;;;;6.90;2.70;;;;;;;10.47;69.54;100160.36;105681;1298;74987;-24
2022/11/11 12:41:56;;;;;;;7.90;2.60;;;;;;;10.28;70.95;100163.57;105640;1297;75629;-24
2022/11/11 12:45:08;;;;;;;5.60;2.50;;;;;;;10.32;71.43;100166.48;105697;1292;74696;-24
2022/11/11 12:48:02;;;;;;;8.80;3.00;;;;;;;10.01;70.27;100161.27;105734;1294;62533;-24
2022/11/11 12:51:10;;;;;;;10.00;3.40;;;;;;;9.77;71.66;100167.39;105747;1293;62362;-24
2022/11/11 12:54:23;;;;;;;5.30;2.70;;;;;;;9.81;72.87;100169.02;105725;1295;74399;-24
2022/11/11 12:57:14;;;;;;;4.70;2.40;;;;;;;10.36;71.10;100155.33;105722;1292;76426;-24
2022/11/11 13:00:12;;;;;;;9.00;2.60;;;;;;;10.39;71.50;100151.64;105708;1293;73572;-24
2022/11/11 13:03:09;;;;;;;6.20;3.10;;;;;;;10.03;72.87;100149.37;105706;1290;60981;-24
2022/11/11 13:05:54;;;;;;;5.80;2.70;;;;;;;10.03;73.38;100151.91;105693;1293;61469;-24
2022/11/11 13:09:08;;;;;;;7.90;2.80;;;;;;;9.93;73.72;100161.87;105757;1295;76491;-24
2022/11/11 13:12:02;;;;;;;7.00;2.80;;;;;;;9.60;75.05;100162.14;105755;1291;76432;-24
2022/11/11 13:14:55;;;;;;;3.80;2.20;;;;;;;9.66;75.42;100164.24;105704;1297;73985;-24
2022/11/11 13:17:40;;;;;;;6.50;3.10;;;;;;;10.21;72.95;100168.31;105729;1295;61396;-24
2022/11/11 13:20:35;;;;;;;7.80;3.30;;;;;;;10.18;72.04;100168.70;105769;1291;61152;-24
2022/11/11 13:23:20;;;;;;;10.90;4.40;;;;;;;9.98;72.57;100174.05;105781;1298;75849;-24
2022/11/11 13:26:33;;;;;;;6.80;3.70;;;;;;;9.79;72.99;100184.77;105757;1295;76362;-24
2022/11/11 13:31:38;;;;;;;8.20;4.00;;;;;;;9.37;74.63;100187.20;99152;1337;600019;-23
2022/11/11 13:34:24;;;;;;;7.70;3.40;;;;;;;9.08;74.51;100179.36;101060;1315;62830;-23
2022/11/11 13:37:27;;;;;;;7.30;2.40;;;;;;;9.11;74.74;100184.94;101001;1315;62787;-23
2022/11/11 13:40:36;;;;;;;10.10;3.30;;;;;;;9.54;73.13;100191.99;101046;1309;74849;-23
2022/11/11 13:43:34;;;;;;;8.60;3.10;;;;;;;9.69;71.72;100198.37;101777;1308;76682;-23
2022/11/11 13:46:40;;;;;;;7.60;2.90;;;;;;;9.47;72.52;100206.77;101122;1303;71797;-24
2022/11/11 13:49:34;;;;;;;9.60;3.60;;;;;;;9.33;72.31;100209.81;101859;1298;61661;-27
2022/11/11 13:52:25;;;;;;;6.70;3.50;;;;;;;9.08;73.56;100212.08;101931;1305;62775;-27
2022/11/11 13:55:42;;;;;;;6.70;2.80;;;;;;;8.95;73.68;100210.41;101924;1297;74788;-25
2022/11/11 13:58:33;;;;;;;6.20;2.40;;;;;;;8.97;74.00;100209.05;101852;1302;76680;-25
2022/11/11 14:01:19;;;;;;;6.50;2.70;;;;;;;9.59;71.90;100211.45;101877;1305;75117;-26
2022/11/11 14:04:07;;;;;;;7.70;3.20;;;;;;;9.74;70.85;100213.36;101917;1305;62016;-27
2022/11/11 14:06:52;;;;;;;8.30;3.00;;;;;;;9.62;71.03;100212.47;101862;1302;62985;-24
2022/11/11 14:09:56;;;;;;;5.70;2.80;;;;;;;9.45;71.52;100199.80;101977;1305;75676;-24
2022/11/11 14:12:45;;;;;;;8.30;3.10;;;;;;;9.20;72.79;100205.88;101894;1302;76695;-24
2022/11/11 14:15:35;;;;;;;8.90;3.50;;;;;;;8.99;73.45;100214.16;101883;1297;74601;-24
2022/11/11 14:18:24;;;;;;;5.90;2.40;;;;;;;8.90;74.34;100219.17;101855;1305;64557;-24
2022/11/11 14:21:10;;;;;;;4.50;2.20;;;;;;;9.49;72.84;100222.41;101913;1294;62856;-24
2022/11/11 14:23:55;;;;;;;7.40;2.90;;;;;;;9.87;71.36;100226.44;101964;1297;75567;-24